sensor_id;sensor_type;location;lat;lon;timestamp;pressure;altitude;pressure_sealevel;temperature;humidity
84289;BME280;75147;50.294;18.660;2024-02-21T00:02:06;99808.31;;;5.05;85.42
84289;BME280;75147;50.294;18.660;2024-02-21T00:04:31;99803.91;;;5.07;85.11
84289;BME280;75147;50.294;18.660;2024-02-21T00:06:57;99804.00;;;5.05;85.33
84289;BME280;75147;50.294;18.660;2024-02-21T00:09:22;99806.63;;;5.04;85.67
84289;BME280;75147;50.294;18.660;2024-02-21T00:11:47;99798.97;;;5.02;85.37
84289;BME280;75147;50.294;18.660;2024-02-21T00:14:13;99804.06;;;5.04;85.14
84289;BME280;75147;50.294;18.660;2024-02-21T00:16:38;99790.47;;;5.00;85.46
84289;BME280;75147;50.294;18.660;2024-02-21T00:19:03;99800.66;;;5.03;85.45
84289;BME280;75147;50.294;18.660;2024-02-21T00:21:29;99796.41;;;5.02;85.57
84289;BME280;75147;50.294;18.660;2024-02-21T00:23:55;99796.53;;;4.99;85.10
84289;BME280;75147;50.294;18.660;2024-02-21T00:26:21;99800.78;;;5.00;85.88
84289;BME280;75147;50.294;18.660;2024-02-21T00:28:46;99796.47;;;5.01;85.16
84289;BME280;75147;50.294;18.660;2024-02-21T00:31:11;99794.78;;;5.00;85.89
84289;BME280;75147;50.294;18.660;2024-02-21T00:33:37;99793.06;;;5.00;85.52
84289;BME280;75147;50.294;18.660;2024-02-21T00:36:02;99787.16;;;4.98;85.73
84289;BME280;75147;50.294;18.660;2024-02-21T00:38:28;99788.00;;;4.99;85.15
84289;BME280;75147;50.294;18.660;2024-02-21T00:40:54;99772.63;;;4.97;84.80
84289;BME280;75147;50.294;18.660;2024-02-21T00:43:19;99772.00;;;4.92;85.24
84289;BME280;75147;50.294;18.660;2024-02-21T00:45:49;99777.06;;;4.94;85.22
84289;BME280;75147;50.294;18.660;2024-02-21T00:48:14;99763.34;;;4.93;85.73
84289;BME280;75147;50.294;18.660;2024-02-21T00:50:39;99771.16;;;4.92;85.21
84289;BME280;75147;50.294;18.660;2024-02-21T00:53:05;99769.50;;;4.91;85.69
84289;BME280;75147;50.294;18.660;2024-02-21T00:55:30;99776.31;;;4.92;85.41
84289;BME280;75147;50.294;18.660;2024-02-21T00:57:56;99766.00;;;4.92;85.24
84289;BME280;75147;50.294;18.660;2024-02-21T01:00:21;99768.72;;;4.89;85.31
84289;BME280;75147;50.294;18.660;2024-02-21T01:02:47;99772.00;;;4.92;85.70
84289;BME280;75147;50.294;18.660;2024-02-21T01:05:12;99773.75;;;4.92;85.45
84289;BME280;75147;50.294;18.660;2024-02-21T01:07:38;99765.19;;;4.91;85.57
84289;BME280;75147;50.294;18.660;2024-02-21T01:10:04;99777.28;;;4.89;85.51
84289;BME280;75147;50.294;18.660;2024-02-21T01:12:29;99767.19;;;4.85;86.19
84289;BME280;75147;50.294;18.660;2024-02-21T01:14:54;99772.97;;;4.90;85.72
84289;BME280;75147;50.294;18.660;2024-02-21T01:17:20;99761.16;;;4.86;86.15
84289;BME280;75147;50.294;18.660;2024-02-21T01:19:46;99755.06;;;4.87;86.33
84289;BME280;75147;50.294;18.660;2024-02-21T01:22:12;99750.13;;;4.82;86.17
84289;BME280;75147;50.294;18.660;2024-02-21T01:24:37;99756.13;;;4.82;86.14
84289;BME280;75147;50.294;18.660;2024-02-21T01:27:03;99752.88;;;4.79;86.69
84289;BME280;75147;50.294;18.660;2024-02-21T01:29:28;99742.75;;;4.74;86.40
84289;BME280;75147;50.294;18.660;2024-02-21T01:31:53;99735.94;;;4.73;86.29
84289;BME280;75147;50.294;18.660;2024-02-21T01:34:19;99740.25;;;4.73;86.67
84289;BME280;75147;50.294;18.660;2024-02-21T01:36:44;99731.84;;;4.69;86.63
84289;BME280;75147;50.294;18.660;2024-02-21T01:39:09;99738.59;;;4.72;86.88
84289;BME280;75147;50.294;18.660;2024-02-21T01:41:35;99733.59;;;4.69;86.90
84289;BME280;75147;50.294;18.660;2024-02-21T01:44:00;99722.47;;;4.68;86.64
84289;BME280;75147;50.294;18.660;2024-02-21T01:46:26;99727.59;;;4.68;86.66
84289;BME280;75147;50.294;18.660;2024-02-21T01:48:55;99723.28;;;4.69;86.84
84289;BME280;75147;50.294;18.660;2024-02-21T01:51:21;99725.94;;;4.67;86.55
84289;BME280;75147;50.294;18.660;2024-02-21T01:53:46;99721.63;;;4.68;86.92
84289;BME280;75147;50.294;18.660;2024-02-21T01:56:12;99722.47;;;4.68;86.81
84289;BME280;75147;50.294;18.660;2024-02-21T01:58:40;99718.97;;;4.69;87.50
84289;BME280;75147;50.294;18.660;2024-02-21T02:01:07;99710.66;;;4.64;86.95
84289;BME280;75147;50.294;18.660;2024-02-21T02:03:33;99714.75;;;4.68;86.83
84289;BME280;75147;50.294;18.660;2024-02-21T02:05:59;99710.50;;;4.67;87.62
84289;BME280;75147;50.294;18.660;2024-02-21T02:08:24;99702.78;;;4.67;87.74
84289;BME280;75147;50.294;18.660;2024-02-21T02:10:52;99711.31;;;4.68;87.25
84289;BME280;75147;50.294;18.660;2024-02-21T02:13:17;99707.09;;;4.67;87.33
84289;BME280;75147;50.294;18.660;2024-02-21T02:15:44;99709.59;;;4.68;87.72
84289;BME280;75147;50.294;18.660;2024-02-21T02:18:10;99703.59;;;4.68;87.90
84289;BME280;75147;50.294;18.660;2024-02-21T02:20:36;99706.19;;;4.68;87.98
84289;BME280;75147;50.294;18.660;2024-02-21T02:25:40;99708.00;;;4.66;87.76
84289;BME280;75147;50.294;18.660;2024-02-21T02:28:06;99703.00;;;4.63;87.65
84289;BME280;75147;50.294;18.660;2024-02-21T02:30:33;99713.28;;;4.63;87.87
84289;BME280;75147;50.294;18.660;2024-02-21T02:32:59;99707.25;;;4.64;87.68
84289;BME280;75147;50.294;18.660;2024-02-21T02:35:24;99704.66;;;4.64;87.76
84289;BME280;75147;50.294;18.660;2024-02-21T02:37:50;99700.34;;;4.64;87.56
84289;BME280;75147;50.294;18.660;2024-02-21T02:40:17;99688.31;;;4.65;87.60
84289;BME280;75147;50.294;18.660;2024-02-21T02:42:43;99687.63;;;4.61;87.92
84289;BME280;75147;50.294;18.660;2024-02-21T02:45:09;99690.25;;;4.60;87.91
84289;BME280;75147;50.294;18.660;2024-02-21T02:47:34;99688.50;;;4.60;87.75
84289;BME280;75147;50.294;18.660;2024-02-21T02:50:00;99675.94;;;4.54;88.01
84289;BME280;75147;50.294;18.660;2024-02-21T02:52:25;99683.59;;;4.56;88.29
84289;BME280;75147;50.294;18.660;2024-02-21T02:54:51;99678.50;;;4.54;87.99
84289;BME280;75147;50.294;18.660;2024-02-21T02:57:17;99674.19;;;4.55;88.27
84289;BME280;75147;50.294;18.660;2024-02-21T02:59:50;99676.84;;;4.53;87.71
84289;BME280;75147;50.294;18.660;2024-02-21T03:02:16;99678.50;;;4.54;88.11
84289;BME280;75147;50.294;18.660;2024-02-21T03:04:43;99670.88;;;4.53;88.30
84289;BME280;75147;50.294;18.660;2024-02-21T03:07:09;99678.50;;;4.54;88.14
84289;BME280;75147;50.294;18.660;2024-02-21T03:09:37;99670.94;;;4.51;88.37
84289;BME280;75147;50.294;18.660;2024-02-21T03:12:02;99672.53;;;4.54;88.23
84289;BME280;75147;50.294;18.660;2024-02-21T03:14:31;99678.50;;;4.54;88.15
84289;BME280;75147;50.294;18.660;2024-02-21T03:17:00;99668.38;;;4.51;88.17
84289;BME280;75147;50.294;18.660;2024-02-21T03:19:25;99670.16;;;4.49;88.30
84289;BME280;75147;50.294;18.660;2024-02-21T03:21:54;99670.03;;;4.52;88.21
84289;BME280;75147;50.294;18.660;2024-02-21T03:24:19;99670.78;;;4.54;87.96
84289;BME280;75147;50.294;18.660;2024-02-21T03:26:45;99671.63;;;4.55;87.94
84289;BME280;75147;50.294;18.660;2024-02-21T03:29:12;99664.06;;;4.52;88.34
84289;BME280;75147;50.294;18.660;2024-02-21T03:31:38;99671.69;;;4.53;87.80
84289;BME280;75147;50.294;18.660;2024-02-21T03:34:03;99674.25;;;4.53;88.52
84289;BME280;75147;50.294;18.660;2024-02-21T03:36:29;99674.25;;;4.53;88.29
84289;BME280;75147;50.294;18.660;2024-02-21T03:38:55;99663.28;;;4.50;88.27
84289;BME280;75147;50.294;18.660;2024-02-21T03:41:20;99664.06;;;4.52;88.61
84289;BME280;75147;50.294;18.660;2024-02-21T03:43:46;99665.81;;;4.51;88.13
84289;BME280;75147;50.294;18.660;2024-02-21T03:46:11;99666.69;;;4.50;88.61
84289;BME280;75147;50.294;18.660;2024-02-21T03:48:36;99663.22;;;4.51;88.37
84289;BME280;75147;50.294;18.660;2024-02-21T03:51:02;99665.88;;;4.50;88.51
84289;BME280;75147;50.294;18.660;2024-02-21T03:53:27;99662.47;;;4.49;88.65
84289;BME280;75147;50.294;18.660;2024-02-21T03:55:53;99659.03;;;4.49;88.07
84289;BME280;75147;50.294;18.660;2024-02-21T03:58:19;99660.78;;;4.48;88.71
84289;BME280;75147;50.294;18.660;2024-02-21T04:00:45;99672.75;;;4.49;88.43
84289;BME280;75147;50.294;18.660;2024-02-21T04:03:10;99670.22;;;4.48;88.76
84289;BME280;75147;50.294;18.660;2024-02-21T04:05:35;99677.06;;;4.49;88.73
84289;BME280;75147;50.294;18.660;2024-02-21T04:08:04;99667.66;;;4.48;88.93
84289;BME280;75147;50.294;18.660;2024-02-21T04:10:30;99665.94;;;4.48;88.60
84289;BME280;75147;50.294;18.660;2024-02-21T04:12:55;99658.22;;;4.48;88.34
84289;BME280;75147;50.294;18.660;2024-02-21T04:15:20;99664.19;;;4.49;88.19
84289;BME280;75147;50.294;18.660;2024-02-21T04:17:46;99648.09;;;4.45;88.34
84289;BME280;75147;50.294;18.660;2024-02-21T04:20:16;99656.53;;;4.47;88.56
84289;BME280;75147;50.294;18.660;2024-02-21T04:22:44;99655.63;;;4.48;88.60
84289;BME280;75147;50.294;18.660;2024-02-21T04:25:10;99644.44;;;4.49;88.46
84289;BME280;75147;50.294;18.660;2024-02-21T04:27:39;99648.81;;;4.47;88.78
84289;BME280;75147;50.294;18.660;2024-02-21T04:30:06;99644.38;;;4.51;88.39
84289;BME280;75147;50.294;18.660;2024-02-21T04:32:32;99641.19;;;4.46;88.31
84289;BME280;75147;50.294;18.660;2024-02-21T04:34:57;99648.69;;;4.50;88.59
84289;BME280;75147;50.294;18.660;2024-02-21T04:37:23;99645.34;;;4.48;88.82
84289;BME280;75147;50.294;18.660;2024-02-21T04:39:48;99633.38;;;4.47;88.85
84289;BME280;75147;50.294;18.660;2024-02-21T04:42:14;99635.06;;;4.48;88.34
84289;BME280;75147;50.294;18.660;2024-02-21T04:44:40;99632.66;;;4.45;88.33
84289;BME280;75147;50.294;18.660;2024-02-21T04:47:05;99628.34;;;4.46;88.11
84289;BME280;75147;50.294;18.660;2024-02-21T04:49:30;99625.66;;;4.47;88.57
84289;BME280;75147;50.294;18.660;2024-02-21T04:51:56;99634.31;;;4.46;88.46
84289;BME280;75147;50.294;18.660;2024-02-21T04:54:21;99632.66;;;4.45;88.60
84289;BME280;75147;50.294;18.660;2024-02-21T04:56:47;99626.66;;;4.45;88.13
84289;BME280;75147;50.294;18.660;2024-02-21T04:59:12;99627.41;;;4.47;88.05
84289;BME280;75147;50.294;18.660;2024-02-21T05:01:37;99613.88;;;4.43;88.65
84289;BME280;75147;50.294;18.660;2024-02-21T05:04:03;99614.66;;;4.45;88.36
84289;BME280;75147;50.294;18.660;2024-02-21T05:06:28;99617.97;;;4.47;88.14
84289;BME280;75147;50.294;18.660;2024-02-21T05:08:54;99615.38;;;4.47;88.33
84289;BME280;75147;50.294;18.660;2024-02-21T05:11:21;99617.97;;;4.47;88.08
84289;BME280;75147;50.294;18.660;2024-02-21T05:13:46;99619.69;;;4.47;88.55
84289;BME280;75147;50.294;18.660;2024-02-21T05:16:12;99609.41;;;4.47;88.04
84289;BME280;75147;50.294;18.660;2024-02-21T05:18:37;99616.22;;;4.48;88.20
84289;BME280;75147;50.294;18.660;2024-02-21T05:21:03;99617.88;;;4.49;88.21
84289;BME280;75147;50.294;18.660;2024-02-21T05:23:28;99607.59;;;4.49;88.26
84289;BME280;75147;50.294;18.660;2024-02-21T05:25:54;99607.66;;;4.47;88.31
84289;BME280;75147;50.294;18.660;2024-02-21T05:28:19;99606.75;;;4.48;88.32
84289;BME280;75147;50.294;18.660;2024-02-21T05:30:45;99610.19;;;4.49;88.04
84289;BME280;75147;50.294;18.660;2024-02-21T05:33:10;99615.31;;;4.49;88.36
84289;BME280;75147;50.294;18.660;2024-02-21T05:35:36;99611.84;;;4.50;88.00
84289;BME280;75147;50.294;18.660;2024-02-21T05:38:02;99611.16;;;4.46;88.12
84289;BME280;75147;50.294;18.660;2024-02-21T05:40:31;99616.09;;;4.51;87.76
84289;BME280;75147;50.294;18.660;2024-02-21T05:42:57;99612.75;;;4.49;87.72
84289;BME280;75147;50.294;18.660;2024-02-21T05:45:23;99618.78;;;4.48;88.36
84289;BME280;75147;50.294;18.660;2024-02-21T05:47:48;99613.53;;;4.51;87.95
84289;BME280;75147;50.294;18.660;2024-02-21T05:50:15;99606.63;;;4.51;88.63
84289;BME280;75147;50.294;18.660;2024-02-21T05:52:40;99599.06;;;4.48;88.33
84289;BME280;75147;50.294;18.660;2024-02-21T05:55:07;99601.44;;;4.53;88.19
84289;BME280;75147;50.294;18.660;2024-02-21T05:57:32;99603.16;;;4.52;88.21
84289;BME280;75147;50.294;18.660;2024-02-21T05:59:58;99601.50;;;4.51;88.03
84289;BME280;75147;50.294;18.660;2024-02-21T06:02:23;99605.63;;;4.54;88.02
84289;BME280;75147;50.294;18.660;2024-02-21T06:04:49;99597.31;;;4.49;88.49
84289;BME280;75147;50.294;18.660;2024-02-21T06:07:14;99590.22;;;4.54;88.10
84289;BME280;75147;50.294;18.660;2024-02-21T06:09:40;99597.84;;;4.55;88.32
84289;BME280;75147;50.294;18.660;2024-02-21T06:12:06;99594.38;;;4.56;88.04
84289;BME280;75147;50.294;18.660;2024-02-21T06:14:31;99597.72;;;4.58;87.80
84289;BME280;75147;50.294;18.660;2024-02-21T06:16:57;99598.47;;;4.60;87.87
84289;BME280;75147;50.294;18.660;2024-02-21T06:19:22;99600.13;;;4.61;88.07
84289;BME280;75147;50.294;18.660;2024-02-21T06:21:47;99603.56;;;4.62;87.97
84289;BME280;75147;50.294;18.660;2024-02-21T06:24:13;99605.16;;;4.64;88.30
84289;BME280;75147;50.294;18.660;2024-02-21T06:26:40;99601.69;;;4.65;87.78
84289;BME280;75147;50.294;18.660;2024-02-21T06:29:06;99601.59;;;4.67;87.50
84289;BME280;75147;50.294;18.660;2024-02-21T06:31:31;99601.59;;;4.67;88.09
84289;BME280;75147;50.294;18.660;2024-02-21T06:33:57;99593.81;;;4.68;87.86
84289;BME280;75147;50.294;18.660;2024-02-21T06:36:22;99600.56;;;4.71;87.92
84289;BME280;75147;50.294;18.660;2024-02-21T06:38:47;99605.63;;;4.72;87.58
84289;BME280;75147;50.294;18.660;2024-02-21T06:41:19;99596.16;;;4.73;87.48
84289;BME280;75147;50.294;18.660;2024-02-21T06:43:45;99589.34;;;4.72;87.48
84289;BME280;75147;50.294;18.660;2024-02-21T06:46:11;99585.78;;;4.74;87.81
84289;BME280;75147;50.294;18.660;2024-02-21T06:48:37;99589.06;;;4.78;87.97
84289;BME280;75147;50.294;18.660;2024-02-21T06:51:03;99588.97;;;4.79;87.43
84289;BME280;75147;50.294;18.660;2024-02-21T06:53:28;99592.47;;;4.78;87.75
84289;BME280;75147;50.294;18.660;2024-02-21T06:55:54;99593.06;;;4.84;87.60
84289;BME280;75147;50.294;18.660;2024-02-21T06:58:19;99593.22;;;4.80;87.17
84289;BME280;75147;50.294;18.660;2024-02-21T07:00:44;99602.38;;;4.86;87.73
84289;BME280;75147;50.294;18.660;2024-02-21T07:03:10;99598.91;;;4.87;87.32
84289;BME280;75147;50.294;18.660;2024-02-21T07:05:35;99594.59;;;4.88;87.59
84289;BME280;75147;50.294;18.660;2024-02-21T07:08:01;99604.81;;;4.89;87.71
84289;BME280;75147;50.294;18.660;2024-02-21T07:10:28;99597.94;;;4.90;87.77
84289;BME280;75147;50.294;18.660;2024-02-21T07:12:54;99595.28;;;4.91;87.79
84289;BME280;75147;50.294;18.660;2024-02-21T07:15:20;99587.56;;;4.91;87.68
84289;BME280;75147;50.294;18.660;2024-02-21T07:17:45;99597.63;;;4.96;87.38
84289;BME280;75147;50.294;18.660;2024-02-21T07:20:11;99586.38;;;4.98;87.08
84289;BME280;75147;50.294;18.660;2024-02-21T07:22:36;99594.75;;;5.02;88.05
84289;BME280;75147;50.294;18.660;2024-02-21T07:25:02;99590.38;;;5.04;87.69
84289;BME280;75147;50.294;18.660;2024-02-21T07:27:28;99585.06;;;5.07;87.60
84289;BME280;75147;50.294;18.660;2024-02-21T07:29:56;99572.94;;;5.09;87.15
84289;BME280;75147;50.294;18.660;2024-02-21T07:32:21;99571.88;;;5.13;87.42
84289;BME280;75147;50.294;18.660;2024-02-21T07:34:47;99577.50;;;5.21;86.69
84289;BME280;75147;50.294;18.660;2024-02-21T07:37:12;99574.66;;;5.26;86.99
84289;BME280;75147;50.294;18.660;2024-02-21T07:39:38;99577.94;;;5.29;86.80
84289;BME280;75147;50.294;18.660;2024-02-21T07:42:03;99578.53;;;5.34;86.92
84289;BME280;75147;50.294;18.660;2024-02-21T07:44:29;99575.81;;;5.37;86.85
84289;BME280;75147;50.294;18.660;2024-02-21T07:46:54;99578.81;;;5.45;86.57
84289;BME280;75147;50.294;18.660;2024-02-21T07:49:20;99572.63;;;5.49;85.90
84289;BME280;75147;50.294;18.660;2024-02-21T07:51:45;99565.47;;;5.54;85.72
84289;BME280;75147;50.294;18.660;2024-02-21T07:54:10;99566.00;;;5.61;85.65
84289;BME280;75147;50.294;18.660;2024-02-21T07:56:36;99563.34;;;5.63;85.94
84289;BME280;75147;50.294;18.660;2024-02-21T07:59:01;99557.88;;;5.69;84.91
84289;BME280;75147;50.294;18.660;2024-02-21T08:01:26;99564.50;;;5.73;85.24
84289;BME280;75147;50.294;18.660;2024-02-21T08:03:52;99561.78;;;5.76;85.42
84289;BME280;75147;50.294;18.660;2024-02-21T08:06:17;99559.81;;;5.81;84.37
84289;BME280;75147;50.294;18.660;2024-02-21T08:08:43;99555.47;;;5.81;84.74
84289;BME280;75147;50.294;18.660;2024-02-21T08:11:08;99553.81;;;5.80;84.82
84289;BME280;75147;50.294;18.660;2024-02-21T08:13:34;99557.81;;;5.86;84.56
84289;BME280;75147;50.294;18.660;2024-02-21T08:16:00;99561.09;;;5.89;84.19
84289;BME280;75147;50.294;18.660;2024-02-21T08:18:25;99548.09;;;5.91;84.11
84289;BME280;75147;50.294;18.660;2024-02-21T08:20:50;99532.50;;;5.94;83.84
84289;BME280;75147;50.294;18.660;2024-02-21T08:23:16;99531.72;;;5.92;84.04
84289;BME280;75147;50.294;18.660;2024-02-21T08:25:42;99523.84;;;5.95;83.63
84289;BME280;75147;50.294;18.660;2024-02-21T08:28:07;99526.34;;;5.96;84.36
84289;BME280;75147;50.294;18.660;2024-02-21T08:30:33;99527.00;;;6.00;83.48
84289;BME280;75147;50.294;18.660;2024-02-21T08:32:59;99522.41;;;6.05;83.65
84289;BME280;75147;50.294;18.660;2024-02-21T08:35:24;99525.69;;;6.09;83.90
84289;BME280;75147;50.294;18.660;2024-02-21T08:37:50;99521.16;;;6.12;83.94
84289;BME280;75147;50.294;18.660;2024-02-21T08:40:15;99519.16;;;6.17;83.68
84289;BME280;75147;50.294;18.660;2024-02-21T08:42:46;99507.03;;;6.19;82.73
84289;BME280;75147;50.294;18.660;2024-02-21T08:45:12;99506.88;;;6.22;82.66
84289;BME280;75147;50.294;18.660;2024-02-21T08:47:40;99505.97;;;6.23;82.96
84289;BME280;75147;50.294;18.660;2024-02-21T08:50:06;99510.66;;;6.31;82.86
84289;BME280;75147;50.294;18.660;2024-02-21T08:52:32;99505.09;;;6.38;82.67
84289;BME280;75147;50.294;18.660;2024-02-21T08:54:57;99500.50;;;6.44;81.88
84289;BME280;75147;50.294;18.660;2024-02-21T08:57:23;99489.84;;;6.50;82.77
84289;BME280;75147;50.294;18.660;2024-02-21T08:59:48;99491.97;;;6.57;82.70
84289;BME280;75147;50.294;18.660;2024-02-21T09:02:14;99493.28;;;6.64;82.05
84289;BME280;75147;50.294;18.660;2024-02-21T09:04:41;99503.75;;;6.77;82.28
84289;BME280;75147;50.294;18.660;2024-02-21T09:07:07;99503.06;;;6.89;81.25
84289;BME280;75147;50.294;18.660;2024-02-21T09:09:34;99499.75;;;7.01;80.38
84289;BME280;75147;50.294;18.660;2024-02-21T09:12:00;99494.78;;;7.12;80.61
84289;BME280;75147;50.294;18.660;2024-02-21T09:14:34;99501.19;;;7.21;79.64
84289;BME280;75147;50.294;18.660;2024-02-21T09:17:00;99503.28;;;7.29;79.67
84289;BME280;75147;50.294;18.660;2024-02-21T09:19:25;99504.69;;;7.34;79.67
84289;BME280;75147;50.294;18.660;2024-02-21T09:21:50;99506.25;;;7.37;79.28
84289;BME280;75147;50.294;18.660;2024-02-21T09:24:17;99506.63;;;7.45;79.44
84289;BME280;75147;50.294;18.660;2024-02-21T09:26:43;99497.75;;;7.49;79.41
84289;BME280;75147;50.294;18.660;2024-02-21T09:29:08;99505.25;;;7.53;79.43
84289;BME280;75147;50.294;18.660;2024-02-21T09:31:33;99513.53;;;7.58;79.33
84289;BME280;75147;50.294;18.660;2024-02-21T09:33:59;99507.25;;;7.63;78.60
84289;BME280;75147;50.294;18.660;2024-02-21T09:36:24;99508.84;;;7.65;78.51
84289;BME280;75147;50.294;18.660;2024-02-21T09:38:50;99507.63;;;7.71;78.35
84289;BME280;75147;50.294;18.660;2024-02-21T09:41:17;99505.59;;;7.76;78.56
84289;BME280;75147;50.294;18.660;2024-02-21T09:43:43;99489.06;;;7.78;78.11
84289;BME280;75147;50.294;18.660;2024-02-21T09:46:16;99493.38;;;7.92;78.00
84289;BME280;75147;50.294;18.660;2024-02-21T09:51:34;99483.22;;;8.16;75.95
84289;BME280;75147;50.294;18.660;2024-02-21T09:54:02;99487.09;;;8.23;75.66
84289;BME280;75147;50.294;18.660;2024-02-21T09:56:28;99495.31;;;8.29;75.33
84289;BME280;75147;50.294;18.660;2024-02-21T09:58:54;99490.69;;;8.34;75.06
84289;BME280;75147;50.294;18.660;2024-02-21T10:01:20;99493.94;;;8.38;75.14
84289;BME280;75147;50.294;18.660;2024-02-21T10:03:45;99496.31;;;8.41;74.40
84289;BME280;75147;50.294;18.660;2024-02-21T10:06:11;99499.53;;;8.45;73.64
84289;BME280;75147;50.294;18.660;2024-02-21T10:08:36;99495.72;;;8.50;73.69
84289;BME280;75147;50.294;18.660;2024-02-21T10:11:02;99497.38;;;8.51;73.69
84289;BME280;75147;50.294;18.660;2024-02-21T10:13:29;99496.97;;;8.57;73.33
84289;BME280;75147;50.294;18.660;2024-02-21T10:16:05;99488.19;;;8.60;72.72
84289;BME280;75147;50.294;18.660;2024-02-21T10:18:31;99485.31;;;8.64;72.94
84289;BME280;75147;50.294;18.660;2024-02-21T10:21:05;99486.56;;;8.71;72.94
84289;BME280;75147;50.294;18.660;2024-02-21T10:23:50;99481.81;;;8.78;72.36
84289;BME280;75147;50.294;18.660;2024-02-21T10:26:17;99478.91;;;8.83;71.99
84289;BME280;75147;50.294;18.660;2024-02-21T10:28:43;99484.41;;;8.91;72.49
84289;BME280;75147;50.294;18.660;2024-02-21T10:31:21;99481.41;;;8.97;72.06
84289;BME280;75147;50.294;18.660;2024-02-21T10:33:56;99485.34;;;9.02;71.66
84289;BME280;75147;50.294;18.660;2024-02-21T10:36:23;99463.78;;;9.02;71.04
84289;BME280;75147;50.294;18.660;2024-02-21T10:38:49;99473.97;;;9.05;71.47
84289;BME280;75147;50.294;18.660;2024-02-21T10:41:15;99472.81;;;9.09;72.00
84289;BME280;75147;50.294;18.660;2024-02-21T10:43:48;99474.25;;;9.13;70.90
84289;BME280;75147;50.294;18.660;2024-02-21T10:46:15;99470.63;;;9.15;71.17
84289;BME280;75147;50.294;18.660;2024-02-21T10:48:45;99460.47;;;9.12;71.23
84289;BME280;75147;50.294;18.660;2024-02-21T10:51:19;99466.19;;;9.17;70.23
84289;BME280;75147;50.294;18.660;2024-02-21T10:53:52;99463.47;;;9.19;70.71
84289;BME280;75147;50.294;18.660;2024-02-21T10:56:30;99463.69;;;9.16;69.86
84289;BME280;75147;50.294;18.660;2024-02-21T10:59:04;99455.69;;;9.19;69.56
84289;BME280;75147;50.294;18.660;2024-02-21T11:01:30;99451.34;;;9.19;69.26
84289;BME280;75147;50.294;18.660;2024-02-21T11:04:11;99447.13;;;9.18;69.27
84289;BME280;75147;50.294;18.660;2024-02-21T11:06:38;99448.66;;;9.21;69.27
84289;BME280;75147;50.294;18.660;2024-02-21T11:09:06;99441.09;;;9.18;69.31
84289;BME280;75147;50.294;18.660;2024-02-21T11:11:39;99439.63;;;9.14;69.31
84289;BME280;75147;50.294;18.660;2024-02-21T11:14:05;99444.00;;;9.13;70.02
84289;BME280;75147;50.294;18.660;2024-02-21T11:16:38;99430.19;;;9.13;70.00
84289;BME280;75147;50.294;18.660;2024-02-21T11:19:09;99432.19;;;9.09;70.56
84289;BME280;75147;50.294;18.660;2024-02-21T11:21:36;99428.25;;;9.04;69.95
84289;BME280;75147;50.294;18.660;2024-02-21T11:24:05;99425.56;;;9.05;70.28
84289;BME280;75147;50.294;18.660;2024-02-21T11:26:32;99420.47;;;9.04;70.67
84289;BME280;75147;50.294;18.660;2024-02-21T11:29:01;99424.00;;;9.03;70.68
84289;BME280;75147;50.294;18.660;2024-02-21T11:31:39;99419.75;;;9.02;71.69
84289;BME280;75147;50.294;18.660;2024-02-21T11:34:08;99423.34;;;8.99;71.73
84289;BME280;75147;50.294;18.660;2024-02-21T11:36:34;99421.00;;;8.96;71.29
84289;BME280;75147;50.294;18.660;2024-02-21T11:39:05;99415.31;;;8.91;71.64
84289;BME280;75147;50.294;18.660;2024-02-21T11:41:31;99419.84;;;8.88;72.36
84289;BME280;75147;50.294;18.660;2024-02-21T11:43:57;99402.97;;;8.82;72.99
84289;BME280;75147;50.294;18.660;2024-02-21T11:46:22;99407.31;;;8.82;73.60
84289;BME280;75147;50.294;18.660;2024-02-21T11:48:49;99406.78;;;8.76;74.03
84289;BME280;75147;50.294;18.660;2024-02-21T11:51:26;99407.09;;;8.72;74.42
84289;BME280;75147;50.294;18.660;2024-02-21T11:53:55;99401.28;;;8.68;75.30
84289;BME280;75147;50.294;18.660;2024-02-21T11:56:20;99395.78;;;8.60;75.34
84289;BME280;75147;50.294;18.660;2024-02-21T11:58:46;99403.69;;;8.59;75.21
84289;BME280;75147;50.294;18.660;2024-02-21T12:01:13;99405.63;;;8.55;75.67
84289;BME280;75147;50.294;18.660;2024-02-21T12:03:39;99405.84;;;8.52;75.84
84289;BME280;75147;50.294;18.660;2024-02-21T12:06:07;99404.50;;;8.47;76.42
84289;BME280;75147;50.294;18.660;2024-02-21T12:08:44;99401.66;;;8.37;76.49
84289;BME280;75147;50.294;18.660;2024-02-21T12:11:22;99404.25;;;8.37;76.72
84289;BME280;75147;50.294;18.660;2024-02-21T12:14:03;99394.31;;;8.31;77.36
84289;BME280;75147;50.294;18.660;2024-02-21T12:16:33;99386.59;;;8.29;77.52
84289;BME280;75147;50.294;18.660;2024-02-21T12:18:59;99390.13;;;8.28;78.22
84289;BME280;75147;50.294;18.660;2024-02-21T12:21:33;99382.34;;;8.28;78.70
84289;BME280;75147;50.294;18.660;2024-02-21T12:24:12;99383.28;;;8.27;78.59
84289;BME280;75147;50.294;18.660;2024-02-21T12:26:38;99381.31;;;8.18;78.21
84289;BME280;75147;50.294;18.660;2024-02-21T12:29:03;99385.44;;;8.21;77.27
84289;BME280;75147;50.294;18.660;2024-02-21T12:31:28;99384.41;;;8.23;77.00
84289;BME280;75147;50.294;18.660;2024-02-21T12:33:54;99384.31;;;8.25;77.34
84289;BME280;75147;50.294;18.660;2024-02-21T12:36:20;99385.88;;;8.27;77.79
84289;BME280;75147;50.294;18.660;2024-02-21T12:38:45;99372.00;;;8.28;78.04
84289;BME280;75147;50.294;18.660;2024-02-21T12:41:14;99366.34;;;8.36;78.69
84289;BME280;75147;50.294;18.660;2024-02-21T12:43:39;99368.44;;;8.44;78.23
84289;BME280;75147;50.294;18.660;2024-02-21T12:46:05;99366.59;;;8.46;78.05
84289;BME280;75147;50.294;18.660;2024-02-21T12:48:33;99373.03;;;8.53;78.50
84289;BME280;75147;50.294;18.660;2024-02-21T12:50:58;99355.81;;;8.52;78.43
84289;BME280;75147;50.294;18.660;2024-02-21T12:53:24;99357.34;;;8.54;77.78
84289;BME280;75147;50.294;18.660;2024-02-21T12:55:50;99355.41;;;8.58;77.58
84289;BME280;75147;50.294;18.660;2024-02-21T12:58:15;99344.84;;;8.61;77.63
84289;BME280;75147;50.294;18.660;2024-02-21T13:00:42;99339.47;;;8.64;77.56
84289;BME280;75147;50.294;18.660;2024-02-21T13:03:08;99329.00;;;8.65;77.11